createdAt,value
2022-10-11T00:01:25.338Z,95094.56
2022-10-11T00:03:54.722Z,95100.06
2022-10-11T00:06:21.340Z,95099.59
2022-10-11T00:08:47.981Z,95119.31
2022-10-11T00:11:14.663Z,95116.38
2022-10-11T00:13:41.285Z,95117.56
2022-10-11T00:16:09.675Z,95102.88
2022-10-11T00:18:36.780Z,95104.16
2022-10-11T00:21:09.296Z,95118.69
2022-10-11T00:23:36.330Z,95114.63
2022-10-11T00:26:05.539Z,95112.50
2022-10-11T00:28:32.863Z,95109.34
2022-10-11T00:30:59.525Z,95097.19
2022-10-11T00:33:26.485Z,95112.50
2022-10-11T00:35:53.180Z,95114.16
2022-10-11T00:38:19.803Z,95112.97
2022-10-11T00:40:46.514Z,95102.56
2022-10-11T00:43:22.640Z,95115.22
2022-10-11T00:45:58.408Z,95107.28
2022-10-11T00:48:30.928Z,95108.00
2022-10-11T00:50:59.615Z,95106.72
2022-10-11T00:53:28.653Z,95087.66
2022-10-11T00:56:07.993Z,95092.66
2022-10-11T00:58:35.688Z,95110.75
2022-10-11T01:01:03.256Z,95104.75
2022-10-11T01:03:31.564Z,95106.75
2022-10-11T01:05:58.258Z,95103.81
2022-10-11T01:08:25.896Z,95097.09
2022-10-11T01:10:52.681Z,95097.97
2022-10-11T01:13:32.285Z,95108.53
2022-10-11T01:16:05.853Z,95102.59
2022-10-11T01:19:14.583Z,95112.50
2022-10-11T01:22:02.813Z,95103.56
2022-10-11T01:24:51.080Z,95097.72
2022-10-11T01:27:26.664Z,95091.13
2022-10-11T01:30:13.765Z,95097.78
2022-10-11T01:32:59.870Z,95089.09
2022-10-11T01:35:31.526Z,95099.50
2022-10-11T01:38:03.221Z,95097.69
2022-10-11T01:40:35.039Z,95092.06
2022-10-11T01:43:02.124Z,95093.41
2022-10-11T01:45:29.958Z,95086.84
2022-10-11T01:48:08.553Z,95111.38
2022-10-11T01:50:46.895Z,95099.81
2022-10-11T01:53:35.361Z,95093.91
2022-10-11T01:56:15.902Z,95107.59
2022-10-11T01:58:55.423Z,95108.41
2022-10-11T02:01:31.056Z,95111.03
2022-10-11T02:04:27.038Z,95110.72
2022-10-11T02:07:20.506Z,95107.28
2022-10-11T02:09:57.014Z,95103.75
2022-10-11T02:12:37.961Z,95110.59
2022-10-11T02:15:09.407Z,95107.06
2022-10-11T02:17:40.612Z,95096.66
2022-10-11T02:20:11.767Z,95099.63
2022-10-11T02:22:40.361Z,95106.75
2022-10-11T02:25:09.885Z,95100.63
2022-10-11T02:27:38.504Z,95101.16
2022-10-11T02:30:07.600Z,95104.75
2022-10-11T02:32:36.197Z,95096.06
2022-10-11T02:35:03.748Z,95094.72
2022-10-11T02:37:56.583Z,95106.69
2022-10-11T02:40:29.786Z,95098.00
2022-10-11T02:43:07.987Z,95100.81
2022-10-11T02:45:38.589Z,95112.06
2022-10-11T02:48:06.398Z,95095.63
2022-10-11T02:50:33.133Z,95099.72
2022-10-11T02:52:59.798Z,95101.19
2022-10-11T02:55:26.409Z,95104.47
2022-10-11T02:57:53.026Z,95091.16
2022-10-11T03:00:19.726Z,95100.19
2022-10-11T03:02:46.405Z,95106.47
2022-10-11T03:05:13.029Z,95102.06
2022-10-11T03:07:39.734Z,95116.94
2022-10-11T03:10:07.088Z,95108.91
2022-10-11T03:12:33.830Z,95112.47
2022-10-11T03:15:00.634Z,95113.44
2022-10-11T03:17:42.844Z,95107.31
2022-10-11T03:20:09.839Z,95099.38
2022-10-11T03:22:36.908Z,95115.84
2022-10-11T03:25:04.757Z,95106.91
2022-10-11T03:27:33.385Z,95116.13
2022-10-11T03:30:00.060Z,95112.00
2022-10-11T03:32:26.698Z,95114.34
2022-10-11T03:34:53.345Z,95122.44
2022-10-11T03:37:20.061Z,95117.09
2022-10-11T03:39:46.728Z,95117.97
2022-10-11T03:42:14.137Z,95123.06
2022-10-11T03:44:42.188Z,95121.44
2022-10-11T03:47:09.226Z,95118.13
2022-10-11T03:49:40.006Z,95109.75
2022-10-11T03:52:10.005Z,95104.97
2022-10-11T03:54:36.617Z,95129.00
2022-10-11T03:57:03.489Z,95130.19
2022-10-11T03:59:30.260Z,95120.31
2022-10-11T04:01:57.172Z,95119.69
2022-10-11T04:04:23.900Z,95120.53
2022-10-11T04:06:50.529Z,95118.22
2022-10-11T04:09:17.186Z,95126.09
2022-10-11T04:11:43.800Z,95123.31
2022-10-11T04:14:10.425Z,95118.84
2022-10-11T04:16:38.819Z,95129.75
2022-10-11T04:19:05.661Z,95127.41
2022-10-11T04:21:32.293Z,95131.75
2022-10-11T04:23:58.950Z,95123.78
2022-10-11T04:26:25.694Z,95121.81
2022-10-11T04:28:52.374Z,95141.63
2022-10-11T04:31:19.578Z,95130.91
2022-10-11T04:33:46.300Z,95134.69
2022-10-11T04:36:13.457Z,95129.41
2022-10-11T04:38:40.051Z,95137.66
2022-10-11T04:41:08.321Z,95136.53
2022-10-11T04:43:43.995Z,95125.81
2022-10-11T04:46:11.555Z,95139.66
2022-10-11T04:48:38.658Z,95143.25
2022-10-11T04:51:05.537Z,95129.25
2022-10-11T04:53:32.195Z,95141.25
2022-10-11T04:56:05.064Z,95138.63
2022-10-11T04:58:33.560Z,95157.44
2022-10-11T05:01:00.648Z,95143.63
2022-10-11T05:03:27.389Z,95148.53
2022-10-11T05:05:54.341Z,95151.66
2022-10-11T05:08:23.264Z,95148.69
2022-10-11T05:11:00.946Z,95153.13
2022-10-11T05:13:28.957Z,95141.44
2022-10-11T05:15:55.767Z,95154.09
2022-10-11T05:18:22.933Z,95158.06
2022-10-11T05:20:50.026Z,95155.75
2022-10-11T05:23:16.652Z,95144.56
2022-10-11T05:25:43.496Z,95149.00
2022-10-11T05:28:10.157Z,95155.09
2022-10-11T05:30:36.816Z,95154.81
2022-10-11T05:33:03.740Z,95166.03
2022-10-11T05:35:30.376Z,95162.25
2022-10-11T05:37:57.107Z,95159.28
2022-10-11T05:40:23.734Z,95167.34
2022-10-11T05:42:50.374Z,95163.69
2022-10-11T05:45:17.152Z,95163.22
2022-10-11T05:47:43.932Z,95171.31
2022-10-11T05:50:10.569Z,95161.72
2022-10-11T05:52:37.293Z,95170.16
2022-10-11T05:55:04.172Z,95175.28
2022-10-11T05:57:30.802Z,95182.19
2022-10-11T05:59:57.466Z,95189.78
2022-10-11T06:02:24.089Z,95192.41
2022-10-11T06:04:50.713Z,95185.66
2022-10-11T06:07:17.353Z,95186.66
2022-10-11T06:09:43.969Z,95194.06
2022-10-11T06:12:10.584Z,95199.00
2022-10-11T06:14:37.316Z,95199.34
2022-10-11T06:17:03.949Z,95183.19
2022-10-11T06:19:30.620Z,95204.78
2022-10-11T06:21:57.245Z,95198.66
2022-10-11T06:24:23.878Z,95199.50
2022-10-11T06:26:50.497Z,95200.84
2022-10-11T06:29:17.140Z,95182.50
2022-10-11T06:31:44.303Z,95202.28
2022-10-11T06:34:11.241Z,95197.66
2022-10-11T06:36:37.881Z,95209.03
2022-10-11T06:39:04.494Z,95214.16
2022-10-11T06:41:31.224Z,95214.13
2022-10-11T06:43:59.027Z,95214.66
2022-10-11T06:46:27.357Z,95207.03
2022-10-11T06:48:56.397Z,95223.72
2022-10-11T06:51:23.193Z,95215.78
2022-10-11T06:53:51.715Z,95209.84
2022-10-11T06:56:19.052Z,95212.00
2022-10-11T06:58:45.890Z,95215.78
2022-10-11T07:01:16.395Z,95234.25
2022-10-11T07:03:43.194Z,95219.38
2022-10-11T07:06:11.976Z,95229.66
2022-10-11T07:08:38.670Z,95226.31
2022-10-11T07:11:10.696Z,95218.03
2022-10-11T07:13:38.077Z,95232.13
2022-10-11T07:16:07.829Z,95231.28
2022-10-11T07:18:35.158Z,95232.13
2022-10-11T07:21:06.272Z,95235.09
2022-10-11T07:23:33.091Z,95237.03
2022-10-11T07:25:59.745Z,95236.03
2022-10-11T07:28:28.861Z,95238.16
2022-10-11T07:30:56.822Z,95231.91
2022-10-11T07:33:23.617Z,95240.66
2022-10-11T07:35:50.429Z,95239.84
2022-10-11T07:38:17.624Z,95242.47
2022-10-11T07:40:46.017Z,95240.81
2022-10-11T07:43:13.315Z,95244.91
2022-10-11T07:45:41.402Z,95242.81
2022-10-11T07:48:08.784Z,95237.47
2022-10-11T07:50:35.432Z,95235.69
2022-10-11T07:53:02.044Z,95237.31
2022-10-11T07:55:30.428Z,95238.13
2022-10-11T07:57:57.840Z,95243.41
2022-10-11T08:00:24.568Z,95252.84
2022-10-11T08:02:51.166Z,95245.41
2022-10-11T08:05:18.001Z,95255.78
2022-10-11T08:07:44.649Z,95239.25
2022-10-11T08:10:11.321Z,95245.38
2022-10-11T08:12:37.973Z,95251.47
2022-10-11T08:15:05.271Z,95264.09
2022-10-11T08:17:31.870Z,95246.91
2022-10-11T08:19:58.604Z,95252.56
2022-10-11T08:22:25.400Z,95260.19
2022-10-11T08:24:52.043Z,95260.09
2022-10-11T08:27:18.769Z,95249.88
2022-10-11T08:29:45.393Z,95252.16
2022-10-11T08:32:12.461Z,95248.50
2022-10-11T08:34:39.069Z,95249.09
2022-10-11T08:37:05.742Z,95255.38
2022-10-11T08:39:53.818Z,95249.41
2022-10-11T08:42:41.523Z,95256.63
2022-10-11T08:45:11.861Z,95262.50
2022-10-11T08:47:41.081Z,95259.88
2022-10-11T08:50:11.112Z,95268.88
2022-10-11T08:52:42.420Z,95266.34
2022-10-11T08:55:23.747Z,95264.63
2022-10-11T08:57:53.316Z,95266.09
2022-10-11T09:00:21.211Z,95266.50
2022-10-11T09:03:10.367Z,95274.78
2022-10-11T09:05:58.618Z,95272.06
2022-10-11T09:08:38.828Z,95258.75
2022-10-11T09:11:14.249Z,95269.81
2022-10-11T09:14:18.598Z,95272.22
2022-10-11T09:17:17.435Z,95265.16
2022-10-11T09:19:49.846Z,95268.19
2022-10-11T09:22:32.149Z,95266.38
2022-10-11T09:25:22.148Z,95259.16
2022-10-11T09:28:06.933Z,95263.44
2022-10-11T09:30:33.962Z,95255.88
2022-10-11T09:33:10.084Z,95266.66
2022-10-11T09:35:40.473Z,95269.50
2022-10-11T09:38:13.390Z,95268.69
2022-10-11T09:41:01.841Z,95266.47
2022-10-11T09:43:28.550Z,95261.44
2022-10-11T09:45:55.164Z,95264.28
2022-10-11T09:48:33.620Z,95265.56
2022-10-11T09:51:06.779Z,95263.25
2022-10-11T09:53:53.034Z,95262.50
2022-10-11T09:56:19.860Z,95261.81
2022-10-11T09:58:46.564Z,95267.59
2022-10-11T10:01:23.547Z,95255.88
2022-10-11T10:04:04.675Z,95266.81
2022-10-11T10:06:31.336Z,95262.63
2022-10-11T10:09:37.105Z,95271.66
2022-10-11T10:12:12.536Z,95269.53
2022-10-11T10:14:41.121Z,95262.13
2022-10-11T10:17:15.977Z,95266.44
2022-10-11T10:19:50.152Z,95266.06
2022-10-11T10:22:19.821Z,95268.09
2022-10-11T10:24:47.504Z,95266.81
2022-10-11T10:27:14.336Z,95268.09
2022-10-11T10:29:41.381Z,95257.50
2022-10-11T10:32:20.318Z,95266.66
2022-10-11T10:35:00.611Z,95264.34
2022-10-11T10:37:39.613Z,95258.91
2022-10-11T10:40:09.925Z,95269.09
2022-10-11T10:42:37.140Z,95264.84
2022-10-11T10:45:11.185Z,95270.88
2022-10-11T10:48:12.777Z,95263.72
2022-10-11T10:50:51.253Z,95262.16
2022-10-11T10:53:38.192Z,95258.50
2022-10-11T10:56:15.753Z,95258.41
2022-10-11T10:59:02.740Z,95252.03
2022-10-11T11:01:32.434Z,95261.88
2022-10-11T11:04:07.859Z,95261.88
2022-10-11T11:06:37.297Z,95257.38
2022-10-11T11:09:19.064Z,95257.88
2022-10-11T11:12:04.248Z,95254.56
2022-10-11T11:15:15.965Z,95257.81
2022-10-11T11:17:51.269Z,95249.03
2022-10-11T11:20:36.455Z,95260.28
2022-10-11T11:23:13.680Z,95261.50
2022-10-11T11:25:45.273Z,95253.06
2022-10-11T11:28:30.787Z,95249.41
2022-10-11T11:31:03.445Z,95251.88
2022-10-11T11:33:36.062Z,95249.47
2022-10-11T11:36:06.421Z,95252.94
2022-10-11T11:38:44.752Z,95241.84
2022-10-11T11:41:27.144Z,95245.34
2022-10-11T11:44:02.869Z,95241.56
2022-10-11T11:46:34.428Z,95247.38
2022-10-11T11:49:07.649Z,95238.91
2022-10-11T11:51:41.786Z,95226.91
2022-10-11T11:54:39.560Z,95243.91
2022-10-11T11:57:12.120Z,95237.00
2022-10-11T11:59:55.235Z,95224.66
2022-10-11T12:02:52.761Z,95239.38
2022-10-11T12:05:24.968Z,95243.09
2022-10-11T12:07:56.400Z,95240.66
2022-10-11T12:10:27.182Z,95234.88
2022-10-11T12:13:10.575Z,95237.66
2022-10-11T12:15:37.432Z,95232.44
2022-10-11T12:18:15.448Z,95240.44
2022-10-11T12:20:43.513Z,95228.00
2022-10-11T12:23:28.392Z,95234.41
2022-10-11T12:26:29.169Z,95240.31
2022-10-11T12:29:17.425Z,95236.66
2022-10-11T12:31:59.161Z,95234.72
2022-10-11T12:37:19.690Z,95223.59
2022-10-11T12:39:49.324Z,95230.13
2022-10-11T12:42:35.774Z,95231.41
2022-10-11T12:45:12.079Z,95224.50
2022-10-11T12:47:47.030Z,95224.09
2022-10-11T12:50:26.697Z,95216.72
2022-10-11T12:53:19.607Z,95222.06
2022-10-11T12:55:57.841Z,95208.16
2022-10-11T12:58:30.765Z,95215.97
2022-10-11T13:00:57.998Z,95216.06
2022-10-11T13:03:31.809Z,95214.44
2022-10-11T13:06:01.886Z,95201.81
2022-10-11T13:08:35.252Z,95204.28
2022-10-11T13:11:05.197Z,95199.06
2022-10-11T13:13:39.804Z,95209.69
2022-10-11T13:16:16.033Z,95198.63
2022-10-11T13:18:44.709Z,95199.06
2022-10-11T13:21:28.936Z,95201.16
2022-10-11T13:23:59.008Z,95196.66
2022-10-11T13:26:27.243Z,95206.50
2022-10-11T13:28:54.032Z,95194.19
2022-10-11T13:31:21.454Z,95189.31
2022-10-11T13:33:48.578Z,95186.03
2022-10-11T13:36:20.720Z,95192.19
2022-10-11T13:38:54.801Z,95188.94
2022-10-11T13:41:21.949Z,95191.41
2022-10-11T13:43:49.108Z,95180.75
2022-10-11T13:46:22.103Z,95192.72
2022-10-11T13:49:29.237Z,95189.81
2022-10-11T13:52:01.668Z,95191.91
2022-10-11T13:54:53.360Z,95188.19
2022-10-11T13:57:32.133Z,95174.81
2022-10-11T13:59:59.176Z,95177.75
2022-10-11T14:02:26.700Z,95182.50
2022-10-11T14:04:53.637Z,95185.38
2022-10-11T14:07:27.342Z,95182.31
2022-10-11T14:09:54.594Z,95191.09
2022-10-11T14:12:29.109Z,95194.78
2022-10-11T14:14:55.831Z,95190.25
2022-10-11T14:17:39.984Z,95187.78
2022-10-11T14:20:13.784Z,95184.50
2022-10-11T14:22:40.410Z,95189.25
2022-10-11T14:25:07.169Z,95190.44
2022-10-11T14:27:33.866Z,95189.81
2022-10-11T14:30:23.445Z,95187.41
2022-10-11T14:32:49.718Z,95188.66
2022-10-11T14:35:18.573Z,95193.91
2022-10-11T14:37:46.064Z,95196.63
2022-10-11T14:40:15.907Z,95196.53
2022-10-11T14:42:42.681Z,95189.16
2022-10-11T14:45:09.594Z,95187.97
2022-10-11T14:47:40.547Z,95182.81
2022-10-11T14:50:39.316Z,95189.81
2022-10-11T14:53:07.839Z,95185.31
2022-10-11T14:55:38.061Z,95188.50
2022-10-11T14:58:06.666Z,95187.28
2022-10-11T15:00:35.141Z,95193.63
2022-10-11T15:03:01.788Z,95178.84
2022-10-11T15:05:33.870Z,95186.03
2022-10-11T15:08:02.392Z,95185.06
2022-10-11T15:10:37.904Z,95175.63
2022-10-11T15:13:07.072Z,95193.31
2022-10-11T15:15:36.685Z,95184.72
2022-10-11T15:18:05.593Z,95195.81
2022-10-11T15:20:32.170Z,95193.06
2022-10-11T15:22:59.960Z,95190.41
2022-10-11T15:25:27.552Z,95175.03
2022-10-11T15:27:54.174Z,95195.72
2022-10-11T15:30:24.707Z,95193.91
2022-10-11T15:32:51.684Z,95196.72
2022-10-11T15:35:19.730Z,95181.66
2022-10-11T15:37:47.078Z,95197.81
2022-10-11T15:40:23.853Z,95199.41
2022-10-11T15:42:51.267Z,95194.00
2022-10-11T15:45:19.338Z,95193.22
2022-10-11T15:47:46.616Z,95192.19
2022-10-11T15:50:34.410Z,95182.16
2022-10-11T15:53:02.905Z,95182.34
2022-10-11T15:55:30.657Z,95184.66
2022-10-11T15:57:57.444Z,95190.44
2022-10-11T16:00:25.112Z,95189.53
2022-10-11T16:02:52.329Z,95182.59
2022-10-11T16:05:20.580Z,95173.22
2022-10-11T16:07:47.508Z,95176.84
2022-10-11T16:10:14.509Z,95188.16
2022-10-11T16:12:41.184Z,95181.84
2022-10-11T16:15:09.641Z,95192.91
2022-10-11T16:17:36.541Z,95184.69
2022-10-11T16:20:06.357Z,95197.59
2022-10-11T16:22:33.994Z,95172.91
2022-10-11T16:25:00.935Z,95179.34
2022-10-11T16:27:27.594Z,95179.41
2022-10-11T16:29:54.470Z,95182.00
2022-10-11T16:32:21.233Z,95195.28
2022-10-11T16:34:47.873Z,95192.56
2022-10-11T16:37:14.490Z,95194.63
2022-10-11T16:39:41.214Z,95186.47
2022-10-11T16:42:07.843Z,95186.97
2022-10-11T16:44:34.483Z,95188.06
2022-10-11T16:47:01.119Z,95195.84
2022-10-11T16:49:28.736Z,95206.50
2022-10-11T16:51:59.136Z,95185.59
2022-10-11T16:54:30.439Z,95205.53
2022-10-11T16:56:58.292Z,95211.59
2022-10-11T16:59:24.996Z,95211.22
2022-10-11T17:01:51.755Z,95205.34
2022-10-11T17:04:18.656Z,95208.84
2022-10-11T17:06:45.463Z,95183.47
2022-10-11T17:09:12.169Z,95221.84
2022-10-11T17:11:38.839Z,95213.34
2022-10-11T17:14:06.263Z,95219.47
2022-10-11T17:16:33.492Z,95215.66
2022-10-11T17:19:00.654Z,95224.97
2022-10-11T17:21:27.429Z,95225.72
2022-10-11T17:23:54.137Z,95223.63
2022-10-11T17:26:26.362Z,95207.44
2022-10-11T17:28:55.040Z,95223.31
2022-10-11T17:31:22.261Z,95236.78
2022-10-11T17:33:48.982Z,95207.63
2022-10-11T17:36:28.026Z,95226.44
2022-10-11T17:38:54.660Z,95228.81
2022-10-11T17:41:21.343Z,95229.53
2022-10-11T17:43:48.581Z,95211.63
2022-10-11T17:46:17.240Z,95231.69
2022-10-11T17:48:45.522Z,95226.75
2022-10-11T17:51:14.821Z,95212.09
2022-10-11T17:53:41.479Z,95212.81
2022-10-11T17:56:13.969Z,95206.09
2022-10-11T17:58:42.018Z,95223.91
2022-10-11T18:01:17.807Z,95219.34
2022-10-11T18:03:49.906Z,95224.63
2022-10-11T18:06:16.529Z,95229.47
2022-10-11T18:08:43.137Z,95215.94
2022-10-11T18:11:15.625Z,95237.59
2022-10-11T18:13:46.072Z,95214.81
2022-10-11T18:16:14.917Z,95227.34
2022-10-11T18:18:42.392Z,95222.19
2022-10-11T18:21:09.790Z,95210.56
2022-10-11T18:23:38.322Z,95217.13
2022-10-11T18:26:11.644Z,95215.91
2022-10-11T18:28:38.931Z,95223.66
2022-10-11T18:31:17.401Z,95214.91
2022-10-11T18:33:46.038Z,95205.97
2022-10-11T18:36:14.919Z,95215.94
2022-10-11T18:38:46.256Z,95223.16
2022-10-11T18:41:14.833Z,95216.75
2022-10-11T18:43:41.789Z,95231.22
2022-10-11T18:46:11.809Z,95223.66
2022-10-11T18:48:42.729Z,95231.00
2022-10-11T18:51:12.293Z,95221.47
2022-10-11T18:53:38.941Z,95211.94
2022-10-11T18:56:07.423Z,95217.38
2022-10-11T18:58:35.515Z,95220.84
2022-10-11T19:01:12.065Z,95211.34
2022-10-11T19:03:39.267Z,95222.06
2022-10-11T19:06:17.218Z,95221.22
2022-10-11T19:08:49.303Z,95213.84
2022-10-11T19:11:17.047Z,95223.22
2022-10-11T19:13:44.185Z,95221.00
2022-10-11T19:16:13.473Z,95227.56
2022-10-11T19:18:44.094Z,95228.09
2022-10-11T19:21:13.725Z,95222.16
2022-10-11T19:23:42.433Z,95219.66
2022-10-11T19:26:14.225Z,95225.16
2022-10-11T19:28:41.445Z,95231.09
2022-10-11T19:31:10.299Z,95225.16
2022-10-11T19:33:37.408Z,95208.69
2022-10-11T19:36:05.842Z,95232.44
2022-10-11T19:38:35.974Z,95226.66
2022-10-11T19:41:04.774Z,95232.81
2022-10-11T19:43:32.160Z,95229.19
2022-10-11T19:46:03.044Z,95237.91
2022-10-11T19:48:30.219Z,95228.38
2022-10-11T19:51:24.111Z,95233.47
2022-10-11T19:54:01.169Z,95236.50
2022-10-11T19:56:29.321Z,95233.88
2022-10-11T19:58:59.201Z,95231.53
2022-10-11T20:01:28.121Z,95242.44
2022-10-11T20:03:57.375Z,95235.69
2022-10-11T20:06:24.634Z,95239.44
2022-10-11T20:09:10.382Z,95246.38
2022-10-11T20:11:38.838Z,95226.22
2022-10-11T20:14:05.574Z,95241.75
2022-10-11T20:16:32.240Z,95236.63
2022-10-11T20:18:59.480Z,95233.50
2022-10-11T20:21:27.968Z,95235.13
2022-10-11T20:23:59.138Z,95233.66
2022-10-11T20:26:27.050Z,95234.47
2022-10-11T20:28:56.081Z,95217.38
2022-10-11T20:31:41.916Z,95229.22
2022-10-11T20:34:09.383Z,95231.19
2022-10-11T20:36:36.527Z,95221.47
2022-10-11T20:39:05.005Z,95235.69
2022-10-11T20:41:34.719Z,95235.16
2022-10-11T20:44:02.173Z,95230.22
2022-10-11T20:46:31.571Z,95212.91
2022-10-11T20:49:02.094Z,95219.97
2022-10-11T20:51:30.764Z,95233.66
2022-10-11T20:53:58.758Z,95229.03
2022-10-11T20:56:25.532Z,95222.44
2022-10-11T20:58:53.072Z,95228.34
2022-10-11T21:01:26.332Z,95232.13
2022-10-11T21:03:53.638Z,95236.38
2022-10-11T21:06:20.673Z,95232.44
2022-10-11T21:08:47.298Z,95233.75
2022-10-11T21:11:13.893Z,95232.94
2022-10-11T21:13:40.584Z,95215.28
2022-10-11T21:16:11.524Z,95227.97
2022-10-11T21:18:38.467Z,95224.88
2022-10-11T21:21:08.946Z,95220.91
2022-10-11T21:23:35.728Z,95220.94
2022-10-11T21:26:11.408Z,95226.38
2022-10-11T21:28:38.684Z,95232.53
2022-10-11T21:31:10.210Z,95217.00
2022-10-11T21:33:37.600Z,95229.22
2022-10-11T21:36:05.419Z,95221.63
2022-10-11T21:38:32.578Z,95226.59
2022-10-11T21:40:59.202Z,95225.59
2022-10-11T21:43:25.822Z,95220.28
2022-10-11T21:45:52.617Z,95218.31
2022-10-11T21:48:19.212Z,95211.06
2022-10-11T21:50:52.613Z,95221.97
2022-10-11T21:53:19.254Z,95216.66
2022-10-11T21:55:45.890Z,95218.94
2022-10-11T21:58:12.665Z,95221.59
2022-10-11T22:00:39.614Z,95211.88
2022-10-11T22:03:06.229Z,95203.63
2022-10-11T22:05:32.924Z,95209.41
2022-10-11T22:07:59.527Z,95209.72
2022-10-11T22:10:26.173Z,95209.41
2022-10-11T22:12:52.774Z,95212.69
2022-10-11T22:15:19.401Z,95212.38
2022-10-11T22:17:46.360Z,95209.06
2022-10-11T22:20:13.017Z,95204.09
2022-10-11T22:22:39.672Z,95206.59
2022-10-11T22:25:06.666Z,95202.94
2022-10-11T22:27:33.292Z,95193.56
2022-10-11T22:30:00.031Z,95204.91
2022-10-11T22:32:26.651Z,95199.34
2022-10-11T22:34:53.274Z,95199.16
2022-10-11T22:37:20.039Z,95184.31
2022-10-11T22:39:46.679Z,95201.09
2022-10-11T22:42:13.276Z,95199.81
2022-10-11T22:44:39.899Z,95196.47
2022-10-11T22:47:06.550Z,95187.72
2022-10-11T22:49:33.189Z,95184.75
2022-10-11T22:51:59.838Z,95193.16
2022-10-11T22:54:26.496Z,95185.56
2022-10-11T22:56:53.156Z,95185.25
2022-10-11T22:59:19.787Z,95194.19
2022-10-11T23:01:46.472Z,95194.84
2022-10-11T23:04:13.206Z,95185.91
2022-10-11T23:06:39.826Z,95185.56
2022-10-11T23:09:06.539Z,95184.75
2022-10-11T23:11:33.189Z,95190.19
2022-10-11T23:13:59.826Z,95185.56
2022-10-11T23:16:26.471Z,95189.88
2022-10-11T23:18:53.574Z,95192.34
2022-10-11T23:21:20.348Z,95186.06
2022-10-11T23:23:47.005Z,95197.75
2022-10-11T23:26:15.550Z,95195.09
2022-10-11T23:28:43.008Z,95180.75
2022-10-11T23:31:17.583Z,95194.75
2022-10-11T23:33:45.177Z,95178.25
2022-10-11T23:36:16.664Z,95192.69
2022-10-11T23:38:43.577Z,95202.63
2022-10-11T23:41:10.266Z,95181.91
2022-10-11T23:43:37.805Z,95204.28
2022-10-11T23:46:04.546Z,95201.00
2022-10-11T23:48:31.226Z,95196.88
2022-10-11T23:50:57.827Z,95201.81
2022-10-11T23:53:24.669Z,95195.22
2022-10-11T23:55:51.951Z,95180.22
2022-10-11T23:58:18.810Z,95192.09
